Appleton, Idaho
Current Conditions -  °F | °C
As of 11:14 PM on Sunday 21 Dec 2014 (Local Time) from KJER Reporting Station
Overcast Overcast  
Wind Chill: 25°   Ceiling: 400
Heat Index: 35°   Visibility: 10mi
Dew Point: 34°   Wind: 16mph
Humidity: 96%   Direction: 240°WSW
Pressure: 30.08"   Gusts: NA
Location:  42.7238°N, 114.338°W
Report Text: KJER 220614Z AUTO 24014KT 10SM OVC004 02/01 A3008 RMK AO2 T00170011
Loading
Personal Weather Stations






























Interactive Weather Map New forecast layout! Learn more

10-Day Weather Forecast

Advertisements
Track Severe Weather on mobile